createdAt,value
2018-07-09T00:01:09.143Z,51.40
2018-07-09T00:03:37.646Z,51.50
2018-07-09T00:06:06.303Z,51.08
2018-07-09T00:08:34.844Z,51.84
2018-07-09T00:11:07.186Z,51.40
2018-07-09T00:13:36.868Z,51.61
2018-07-09T00:16:05.347Z,51.91
2018-07-09T00:18:33.853Z,52.52
2018-07-09T00:21:02.331Z,52.28
2018-07-09T00:23:31.103Z,52.39
2018-07-09T00:25:59.585Z,53.00
2018-07-09T00:28:28.083Z,52.88
2018-07-09T00:30:56.537Z,52.65
2018-07-09T00:33:25.013Z,52.92
2018-07-09T00:35:53.441Z,52.66
2018-07-09T00:38:21.917Z,53.38
2018-07-09T00:40:50.873Z,53.43
2018-07-09T00:43:19.287Z,52.99
2018-07-09T00:45:47.755Z,53.28
2018-07-09T00:48:16.197Z,53.77
2018-07-09T00:50:44.650Z,54.02
2018-07-09T00:53:13.009Z,53.64
2018-07-09T00:55:41.627Z,53.48
2018-07-09T00:58:15.317Z,54.28
2018-07-09T01:00:43.826Z,53.87
2018-07-09T01:03:12.531Z,54.30
2018-07-09T01:05:41.001Z,54.38
2018-07-09T01:08:09.591Z,53.75
2018-07-09T01:10:49.273Z,53.73
2018-07-09T01:13:20.156Z,54.49
2018-07-09T01:15:48.683Z,54.53
2018-07-09T01:18:17.418Z,54.76
2018-07-09T01:20:45.911Z,54.93
2018-07-09T01:23:14.857Z,54.87
2018-07-09T01:25:43.376Z,54.78
2018-07-09T01:28:12.024Z,54.32
2018-07-09T01:30:40.737Z,54.36
2018-07-09T01:33:09.180Z,54.47
2018-07-09T01:35:37.699Z,54.67
2018-07-09T01:38:06.585Z,54.62
2018-07-09T01:40:35.279Z,55.03
2018-07-09T01:43:03.697Z,55.35
2018-07-09T01:45:32.119Z,54.90
2018-07-09T01:48:00.570Z,54.73
2018-07-09T01:50:29.205Z,54.84
2018-07-09T01:52:57.637Z,54.57
2018-07-09T01:55:26.135Z,54.88
2018-07-09T01:57:54.681Z,54.55
2018-07-09T02:00:23.134Z,54.55
2018-07-09T02:02:51.645Z,54.93
2018-07-09T02:05:20.249Z,54.58
2018-07-09T02:07:48.817Z,54.62
2018-07-09T02:10:19.151Z,54.54
2018-07-09T02:12:47.962Z,54.78
2018-07-09T02:15:16.619Z,54.58
2018-07-09T02:18:03.943Z,54.64
2018-07-09T02:20:33.078Z,54.77
2018-07-09T02:23:02.540Z,54.88
2018-07-09T02:25:31.125Z,55.17
2018-07-09T02:28:13.219Z,54.68
2018-07-09T02:30:41.718Z,54.70
2018-07-09T02:33:11.781Z,55.34
2018-07-09T02:35:40.288Z,55.27
2018-07-09T02:38:14.559Z,54.97
2018-07-09T02:40:43.618Z,54.98
2018-07-09T02:43:12.122Z,55.55
2018-07-09T02:45:40.730Z,55.81
2018-07-09T02:48:09.458Z,55.95
2018-07-09T02:50:38.976Z,54.96
2018-07-09T02:53:07.822Z,56.02
2018-07-09T02:55:36.844Z,55.31
2018-07-09T02:58:05.638Z,55.48
2018-07-09T03:00:34.580Z,54.94
2018-07-09T03:03:03.709Z,55.07
2018-07-09T03:05:32.650Z,55.52
2018-07-09T03:08:01.326Z,55.26
2018-07-09T03:10:30.023Z,55.57
2018-07-09T03:12:58.728Z,55.64
2018-07-09T03:15:27.744Z,55.66
2018-07-09T03:17:56.354Z,55.19
2018-07-09T03:20:24.996Z,55.26
2018-07-09T03:22:53.516Z,55.19
2018-07-09T03:25:22.198Z,55.19
2018-07-09T03:27:51.318Z,54.81
2018-07-09T03:30:20.027Z,55.02
2018-07-09T03:32:48.784Z,55.08
2018-07-09T03:35:17.752Z,54.00
2018-07-09T03:37:51.562Z,54.59
2018-07-09T03:40:20.192Z,54.80
2018-07-09T03:42:49.066Z,54.38
2018-07-09T03:45:17.854Z,54.97
2018-07-09T03:47:46.631Z,54.37
2018-07-09T03:50:15.345Z,54.69
2018-07-09T03:52:43.940Z,54.76
2018-07-09T03:55:12.828Z,55.29
2018-07-09T03:57:41.546Z,55.38
2018-07-09T04:00:10.227Z,55.42
2018-07-09T04:02:38.880Z,55.01
2018-07-09T04:05:07.506Z,55.85
2018-07-09T04:07:36.152Z,55.65
2018-07-09T04:10:04.724Z,55.63
2018-07-09T04:12:33.808Z,55.56
2018-07-09T04:15:02.456Z,56.27
2018-07-09T04:17:32.159Z,56.24
2018-07-09T04:20:01.017Z,56.10
2018-07-09T04:22:30.838Z,55.78
2018-07-09T04:24:59.484Z,55.02
2018-07-09T04:27:28.169Z,55.91
2018-07-09T04:29:56.907Z,54.91
2018-07-09T04:32:26.034Z,54.46
2018-07-09T04:34:54.892Z,55.16
2018-07-09T04:37:23.592Z,55.38
2018-07-09T04:39:52.252Z,54.98
2018-07-09T04:42:20.860Z,55.59
2018-07-09T04:44:50.108Z,55.60
2018-07-09T04:47:19.077Z,55.72
2018-07-09T04:49:48.064Z,55.55
2018-07-09T04:52:16.534Z,56.67
2018-07-09T04:54:45.080Z,56.42
2018-07-09T04:57:13.754Z,56.48
2018-07-09T04:59:42.126Z,57.26
2018-07-09T05:02:10.921Z,57.26
2018-07-09T05:04:39.406Z,56.64
2018-07-09T05:07:08.325Z,57.15
2018-07-09T05:09:37.832Z,57.64
2018-07-09T05:12:06.709Z,58.07
2018-07-09T05:14:35.260Z,58.29
2018-07-09T05:17:04.018Z,58.57
2018-07-09T05:19:32.504Z,58.41
2018-07-09T05:22:01.041Z,57.77
2018-07-09T05:24:29.622Z,57.60
2018-07-09T05:26:58.090Z,57.83
2018-07-09T05:29:26.662Z,58.22
2018-07-09T05:31:55.141Z,58.36
2018-07-09T05:34:23.750Z,58.22
2018-07-09T05:36:52.336Z,58.51
2018-07-09T05:39:21.151Z,58.09
2018-07-09T05:41:49.668Z,57.90
2018-07-09T05:44:18.362Z,57.85
2018-07-09T05:46:47.158Z,57.68
2018-07-09T05:49:15.568Z,57.85
2018-07-09T05:51:44.088Z,58.14
2018-07-09T05:54:12.665Z,58.34
2018-07-09T05:56:41.372Z,58.29
2018-07-09T05:59:09.975Z,58.66
2018-07-09T06:01:38.403Z,58.45
2018-07-09T06:04:06.901Z,58.26
2018-07-09T06:06:35.422Z,58.08
2018-07-09T06:09:04.684Z,57.94
2018-07-09T06:11:33.199Z,57.76
2018-07-09T06:14:02.059Z,57.92
2018-07-09T06:16:30.530Z,57.21
2018-07-09T06:18:59.646Z,57.49
2018-07-09T06:21:28.349Z,57.33
2018-07-09T06:23:56.833Z,57.24
2018-07-09T06:26:25.383Z,57.45
2018-07-09T06:28:54.287Z,57.99
2018-07-09T06:31:22.795Z,57.87
2018-07-09T06:33:51.218Z,57.70
2018-07-09T06:36:19.664Z,57.94
2018-07-09T06:38:53.261Z,57.44
2018-07-09T06:41:21.765Z,57.37
2018-07-09T06:43:50.303Z,57.56
2018-07-09T06:46:18.880Z,58.16
2018-07-09T06:48:47.456Z,57.72
2018-07-09T06:51:15.955Z,57.70
2018-07-09T06:53:44.449Z,57.60
2018-07-09T06:56:12.933Z,58.17
2018-07-09T06:58:50.795Z,58.05
2018-07-09T07:01:19.802Z,57.32
2018-07-09T07:03:48.511Z,56.88
2018-07-09T07:06:17.072Z,56.43
2018-07-09T07:08:45.853Z,55.50
2018-07-09T07:11:14.435Z,55.59
2018-07-09T07:13:43.035Z,55.31
2018-07-09T07:16:11.692Z,53.62
2018-07-09T07:18:45.470Z,53.88
2018-07-09T07:21:14.174Z,52.64
2018-07-09T07:23:42.867Z,53.29
2018-07-09T07:26:11.264Z,54.05
2018-07-09T07:28:39.844Z,53.03
2018-07-09T07:31:08.457Z,52.31
2018-07-09T07:33:37.233Z,53.51
2018-07-09T07:36:05.850Z,53.55
2018-07-09T07:38:34.333Z,53.61
2018-07-09T07:41:02.765Z,54.00
2018-07-09T07:43:31.347Z,53.16
2018-07-09T07:45:59.855Z,51.67
2018-07-09T07:48:28.422Z,52.33
2018-07-09T07:50:57.090Z,51.89
2018-07-09T07:53:26.200Z,52.81
2018-07-09T07:55:54.793Z,52.15
2018-07-09T07:58:23.553Z,52.40
2018-07-09T08:00:52.152Z,52.90
2018-07-09T08:03:20.782Z,52.14
2018-07-09T08:05:49.323Z,51.33
2018-07-09T08:08:18.019Z,51.39
2018-07-09T08:10:46.567Z,50.90
2018-07-09T08:13:27.982Z,51.02
2018-07-09T08:15:43.619Z,51.75
2018-07-09T08:18:12.465Z,51.99
2018-07-09T08:20:41.223Z,51.29
2018-07-09T08:23:09.763Z,51.12
2018-07-09T08:25:38.573Z,50.84
2018-07-09T08:28:07.037Z,50.85
2018-07-09T08:30:36.066Z,51.16
2018-07-09T08:33:04.554Z,50.81
2018-07-09T08:35:33.142Z,49.85
2018-07-09T08:38:01.812Z,49.81
2018-07-09T08:40:30.219Z,50.38
2018-07-09T08:42:58.689Z,49.99
2018-07-09T08:45:27.291Z,50.18
2018-07-09T08:48:00.819Z,50.40
2018-07-09T08:50:29.309Z,50.23
2018-07-09T08:52:57.833Z,49.35
2018-07-09T08:55:26.379Z,49.49
2018-07-09T08:57:55.079Z,49.14
2018-07-09T09:00:23.599Z,49.23
2018-07-09T09:02:52.646Z,48.42
2018-07-09T09:05:21.123Z,47.12
2018-07-09T09:07:49.727Z,46.29
2018-07-09T09:10:18.397Z,45.82
2018-07-09T09:12:47.033Z,46.06
2018-07-09T09:15:15.843Z,45.38
2018-07-09T09:17:44.539Z,44.52
2018-07-09T09:20:13.055Z,43.99
2018-07-09T09:22:41.526Z,42.99
2018-07-09T09:25:10.005Z,43.40
2018-07-09T09:27:38.460Z,43.30
2018-07-09T09:30:07.051Z,42.68
2018-07-09T09:32:35.832Z,43.16
2018-07-09T09:35:04.389Z,42.81
2018-07-09T09:37:33.009Z,42.84
2018-07-09T09:40:01.449Z,41.96
2018-07-09T09:42:29.996Z,42.01
2018-07-09T09:44:58.787Z,42.29
2018-07-09T09:47:27.515Z,41.01
2018-07-09T09:49:56.195Z,41.95
2018-07-09T09:52:24.535Z,42.04
2018-07-09T09:54:53.418Z,40.17
2018-07-09T09:57:22.059Z,40.96
2018-07-09T09:59:50.949Z,40.37
2018-07-09T10:02:19.674Z,39.47
2018-07-09T10:04:48.123Z,38.32
2018-07-09T10:07:21.705Z,37.77
2018-07-09T10:09:50.139Z,38.13
2018-07-09T10:12:19.368Z,37.52
2018-07-09T10:14:47.811Z,37.84
2018-07-09T10:17:17.409Z,37.52
2018-07-09T10:19:46.303Z,36.92
2018-07-09T10:22:14.838Z,37.13
2018-07-09T10:24:43.389Z,34.94
2018-07-09T10:27:12.593Z,35.60
2018-07-09T10:29:41.407Z,36.18
2018-07-09T10:32:10.673Z,35.68
2018-07-09T10:34:40.257Z,36.04
2018-07-09T10:37:09.031Z,35.92
2018-07-09T10:39:42.815Z,35.87
2018-07-09T10:42:13.514Z,35.57
2018-07-09T10:44:42.105Z,33.58
2018-07-09T10:47:10.805Z,33.94
2018-07-09T10:49:40.113Z,34.21
2018-07-09T10:52:11.207Z,33.77
2018-07-09T10:54:41.093Z,32.37
2018-07-09T10:57:10.257Z,33.17
2018-07-09T10:59:39.255Z,32.85
2018-07-09T11:02:07.991Z,32.63
2018-07-09T11:04:41.414Z,32.66
2018-07-09T11:07:10.216Z,33.39
2018-07-09T11:09:39.904Z,33.30
2018-07-09T11:12:09.682Z,32.25
2018-07-09T11:14:38.455Z,31.53
2018-07-09T11:17:07.259Z,30.91
2018-07-09T11:19:40.609Z,28.86
2018-07-09T11:22:09.356Z,30.50
2018-07-09T11:24:38.344Z,28.75
2018-07-09T11:27:08.788Z,28.91
2018-07-09T11:29:37.880Z,29.34
2018-07-09T11:32:07.537Z,29.27
2018-07-09T11:34:36.077Z,28.41
2018-07-09T11:37:04.609Z,28.97
2018-07-09T11:39:33.177Z,29.26
2018-07-09T11:42:02.589Z,28.81
2018-07-09T11:44:31.335Z,26.91
2018-07-09T11:49:53.641Z,26.95
2018-07-09T11:52:22.301Z,24.92
2018-07-09T11:54:51.046Z,25.07
2018-07-09T11:57:33.383Z,24.69
2018-07-09T12:00:02.378Z,24.15
2018-07-09T12:02:32.775Z,24.52
2018-07-09T12:05:01.375Z,25.84
2018-07-09T12:07:43.559Z,26.36
2018-07-09T12:10:12.590Z,25.74
2018-07-09T12:12:41.196Z,25.65
2018-07-09T12:15:09.663Z,25.62
2018-07-09T12:17:38.241Z,25.85
2018-07-09T12:20:06.791Z,25.44
2018-07-09T12:22:36.577Z,24.71
2018-07-09T12:25:10.366Z,24.85
2018-07-09T12:27:44.105Z,24.68
2018-07-09T12:30:13.529Z,22.46
2018-07-09T12:32:42.013Z,23.23
2018-07-09T12:35:10.900Z,24.59
2018-07-09T12:37:39.616Z,25.48
2018-07-09T12:40:08.211Z,25.15
2018-07-09T12:42:36.811Z,26.33
2018-07-09T12:45:06.218Z,26.55
2018-07-09T12:47:40.010Z,26.16
2018-07-09T12:50:08.728Z,26.97
2018-07-09T12:52:37.309Z,28.18
2018-07-09T12:55:05.914Z,27.89
2018-07-09T12:57:48.121Z,28.62
2018-07-09T13:00:17.107Z,28.67
2018-07-09T13:02:45.873Z,28.27
2018-07-09T13:05:14.370Z,28.52
2018-07-09T13:07:42.961Z,29.68
2018-07-09T13:10:11.531Z,29.10
2018-07-09T13:12:40.401Z,28.88
2018-07-09T13:15:08.930Z,29.31
2018-07-09T13:17:37.837Z,29.40
2018-07-09T13:20:06.347Z,29.45
2018-07-09T13:22:35.281Z,29.10
2018-07-09T13:25:03.863Z,29.46
2018-07-09T13:30:47.753Z,30.01
2018-07-09T13:33:16.283Z,29.95
2018-07-09T13:35:44.921Z,30.15
2018-07-09T13:38:13.730Z,29.96
2018-07-09T13:40:43.559Z,29.98
2018-07-09T13:43:12.109Z,30.69
2018-07-09T13:45:40.491Z,30.76
2018-07-09T13:48:09.424Z,32.16
2018-07-09T13:50:38.141Z,32.28
2018-07-09T13:53:06.749Z,32.56
2018-07-09T13:55:35.309Z,32.10
2018-07-09T13:58:03.925Z,31.15
2018-07-09T14:00:32.465Z,31.21
2018-07-09T14:03:00.925Z,31.64
2018-07-09T14:05:29.352Z,31.24
2018-07-09T14:07:57.875Z,30.64
2018-07-09T14:10:26.312Z,30.78
2018-07-09T14:12:54.709Z,30.20
2018-07-09T14:15:23.067Z,30.60
2018-07-09T14:17:51.571Z,31.58
2018-07-09T14:20:28.366Z,31.29
2018-07-09T14:22:56.988Z,32.41
2018-07-09T14:25:25.467Z,32.31
2018-07-09T14:27:54.221Z,31.73
2018-07-09T14:30:22.722Z,32.41
2018-07-09T14:32:51.116Z,33.74
2018-07-09T14:35:19.539Z,33.53
2018-07-09T14:37:48.201Z,34.34
2018-07-09T14:40:16.745Z,34.11
2018-07-09T14:42:45.210Z,34.05
2018-07-09T14:45:13.590Z,33.85
2018-07-09T14:47:41.999Z,34.04
2018-07-09T14:50:10.426Z,34.39
2018-07-09T14:52:38.971Z,34.38
2018-07-09T14:55:07.508Z,34.60
2018-07-09T14:57:36.069Z,34.85
2018-07-09T15:00:05.165Z,34.33
2018-07-09T15:02:33.579Z,34.62
2018-07-09T15:05:01.994Z,35.58
2018-07-09T15:07:30.552Z,35.87
2018-07-09T15:09:58.973Z,36.44
2018-07-09T15:12:27.411Z,36.44
2018-07-09T15:14:55.852Z,36.23
2018-07-09T15:17:24.331Z,36.59
2018-07-09T15:19:52.851Z,36.75
2018-07-09T15:22:21.920Z,37.62
2018-07-09T15:24:50.411Z,37.36
2018-07-09T15:27:18.870Z,36.79
2018-07-09T15:29:47.303Z,36.98
2018-07-09T15:32:22.372Z,36.68
2018-07-09T15:34:50.839Z,37.92
2018-07-09T15:37:19.299Z,37.97
2018-07-09T15:39:47.743Z,38.32
2018-07-09T15:42:16.149Z,37.94
2018-07-09T15:44:44.581Z,38.53
2018-07-09T15:47:13.009Z,38.58
2018-07-09T15:49:42.105Z,38.34
2018-07-09T15:52:13.006Z,38.59
2018-07-09T15:54:41.405Z,38.20
2018-07-09T15:57:09.830Z,38.29
2018-07-09T15:59:38.515Z,38.27
2018-07-09T16:02:07.021Z,38.34
2018-07-09T16:04:35.469Z,37.77
2018-07-09T16:07:03.955Z,38.27
2018-07-09T16:09:32.410Z,38.44
2018-07-09T16:12:00.761Z,38.12
2018-07-09T16:14:29.201Z,38.52
2018-07-09T16:16:57.642Z,38.16
2018-07-09T16:19:25.964Z,38.08
2018-07-09T16:21:54.456Z,38.84
2018-07-09T16:24:22.872Z,39.09
2018-07-09T16:26:51.294Z,38.70
2018-07-09T16:29:19.767Z,39.20
2018-07-09T16:31:48.194Z,38.82
2018-07-09T16:34:16.636Z,38.76
2018-07-09T16:36:45.040Z,38.97
2018-07-09T16:39:13.508Z,39.13
2018-07-09T16:41:41.977Z,38.87
2018-07-09T16:44:11.357Z,38.78
2018-07-09T16:46:40.440Z,38.66
2018-07-09T16:49:18.649Z,38.89
2018-07-09T16:51:48.405Z,38.56
2018-07-09T16:54:18.687Z,38.96
2018-07-09T16:56:47.952Z,38.66
2018-07-09T16:59:17.025Z,39.01
2018-07-09T17:01:46.725Z,38.79
2018-07-09T17:04:15.624Z,39.34
2018-07-09T17:06:44.403Z,39.10
2018-07-09T17:09:13.404Z,38.92
2018-07-09T17:11:43.881Z,39.35
2018-07-09T17:14:13.335Z,39.28
2018-07-09T17:16:50.833Z,38.76
2018-07-09T17:19:20.060Z,38.90
2018-07-09T17:21:57.013Z,39.64
2018-07-09T17:24:26.708Z,39.28
2018-07-09T17:26:56.170Z,40.11
2018-07-09T17:29:26.135Z,39.98
2018-07-09T17:31:55.564Z,39.48
2018-07-09T17:34:24.315Z,40.19
2018-07-09T17:36:53.331Z,40.22
2018-07-09T17:39:22.239Z,39.66
2018-07-09T17:41:56.329Z,39.47
2018-07-09T17:44:25.395Z,38.81
2018-07-09T17:49:56.412Z,38.98
2018-07-09T17:52:25.002Z,38.91
2018-07-09T17:54:54.093Z,39.45
2018-07-09T17:57:22.825Z,39.51
2018-07-09T17:59:52.168Z,39.20
2018-07-09T18:04:57.062Z,39.58
2018-07-09T18:07:25.653Z,39.57
2018-07-09T18:09:54.269Z,40.21
2018-07-09T18:12:23.209Z,40.27
2018-07-09T18:14:52.257Z,39.94
2018-07-09T18:17:21.455Z,40.74
2018-07-09T18:19:50.071Z,40.25
2018-07-09T18:22:18.644Z,41.11
2018-07-09T18:24:47.574Z,40.84
2018-07-09T18:27:16.186Z,42.18
2018-07-09T18:29:44.964Z,41.44
2018-07-09T18:32:13.665Z,41.73
2018-07-09T18:34:42.545Z,41.54
2018-07-09T18:37:17.259Z,41.40
2018-07-09T18:39:45.991Z,41.73
2018-07-09T18:42:16.108Z,41.70
2018-07-09T18:44:45.406Z,41.50
2018-07-09T18:47:14.286Z,42.37
2018-07-09T18:49:43.757Z,42.22
2018-07-09T18:52:14.100Z,42.26
2018-07-09T18:54:43.607Z,42.32
2018-07-09T18:57:31.031Z,42.63
2018-07-09T18:59:59.723Z,42.58
2018-07-09T19:02:28.605Z,43.16
2018-07-09T19:04:57.280Z,43.41
2018-07-09T19:07:28.270Z,44.16
2018-07-09T19:09:57.078Z,43.95
2018-07-09T19:12:29.918Z,44.84
2018-07-09T19:14:58.907Z,44.42
2018-07-09T19:18:05.703Z,44.12
2018-07-09T19:20:45.502Z,44.33
2018-07-09T19:23:13.766Z,44.99
2018-07-09T19:25:41.280Z,44.59
2018-07-09T19:28:13.955Z,44.70
2018-07-09T19:30:41.678Z,44.63
2018-07-09T19:33:09.038Z,44.92
2018-07-09T19:35:36.536Z,44.65
2018-07-09T19:38:04.239Z,45.34
2018-07-09T19:40:35.362Z,45.30
2018-07-09T19:43:02.973Z,45.01
2018-07-09T19:45:30.322Z,45.75
2018-07-09T19:48:08.033Z,45.17
2018-07-09T19:50:36.620Z,45.81
2018-07-09T19:53:05.181Z,45.38
2018-07-09T19:55:34.923Z,44.86
2018-07-09T19:58:03.757Z,45.37
2018-07-09T20:00:32.726Z,45.38
2018-07-09T20:03:00.953Z,45.01
2018-07-09T20:05:28.598Z,45.56
2018-07-09T20:07:55.974Z,45.24
2018-07-09T20:10:28.443Z,46.01
2018-07-09T20:15:03.926Z,45.87
2018-07-09T20:17:35.281Z,44.88
2018-07-09T20:20:02.536Z,45.31
2018-07-09T20:22:29.870Z,44.72
2018-07-09T20:24:57.442Z,45.52
2018-07-09T20:27:24.656Z,44.96
2018-07-09T20:29:52.869Z,45.14
2018-07-09T20:32:20.831Z,45.21
2018-07-09T20:34:48.138Z,45.11
2018-07-09T20:37:15.333Z,45.54
2018-07-09T20:39:42.753Z,45.46
2018-07-09T20:42:09.944Z,45.51
2018-07-09T20:44:37.483Z,45.46
2018-07-09T20:47:04.731Z,45.58
2018-07-09T20:49:33.089Z,46.22
2018-07-09T20:52:00.685Z,45.74
2018-07-09T20:54:29.613Z,46.16
2018-07-09T20:56:58.439Z,46.69
2018-07-09T20:59:26.284Z,46.85
2018-07-09T21:01:53.802Z,47.10
2018-07-09T21:04:28.936Z,47.01
2018-07-09T21:06:57.615Z,46.69
2018-07-09T21:09:25.395Z,46.88
2018-07-09T21:11:53.025Z,46.87
2018-07-09T21:14:20.376Z,47.15
2018-07-09T21:16:48.069Z,47.08
2018-07-09T21:19:25.226Z,47.76
2018-07-09T21:21:52.942Z,47.43
2018-07-09T21:24:20.258Z,46.75
2018-07-09T21:26:48.007Z,47.02
2018-07-09T21:32:08.751Z,47.55
2018-07-09T21:34:37.130Z,47.91
2018-07-09T21:37:05.097Z,47.55
2018-07-09T21:39:32.709Z,47.48
2018-07-09T21:42:00.531Z,48.00
2018-07-09T21:44:27.988Z,47.86
2018-07-09T21:46:57.611Z,47.52
2018-07-09T21:49:25.364Z,47.68
2018-07-09T21:51:53.720Z,47.74
2018-07-09T21:54:20.963Z,47.40
2018-07-09T21:56:48.715Z,47.86
2018-07-09T21:59:16.154Z,48.22
2018-07-09T22:01:43.625Z,48.41
2018-07-09T22:04:11.157Z,48.08
2018-07-09T22:06:38.838Z,48.46
2018-07-09T22:09:06.143Z,48.29
2018-07-09T22:11:34.046Z,47.94
2018-07-09T22:14:01.568Z,48.07
2018-07-09T22:16:28.931Z,48.51
2018-07-09T22:18:56.404Z,48.50
2018-07-09T22:21:23.773Z,48.21
2018-07-09T22:23:51.036Z,48.43
2018-07-09T22:26:19.291Z,49.08
2018-07-09T22:28:46.792Z,49.18
2018-07-09T22:31:15.981Z,49.11
2018-07-09T22:33:44.695Z,48.83
2018-07-09T22:36:13.312Z,49.14
2018-07-09T22:38:42.398Z,49.43
2018-07-09T22:41:10.911Z,49.42
2018-07-09T22:43:50.472Z,49.13
2018-07-09T22:46:19.565Z,48.95
2018-07-09T22:48:48.075Z,49.56
2018-07-09T22:51:16.495Z,49.76
2018-07-09T22:53:44.854Z,49.48
2018-07-09T22:56:14.273Z,48.67
2018-07-09T22:58:43.528Z,48.81
2018-07-09T23:01:11.985Z,48.58
2018-07-09T23:03:40.469Z,49.22
2018-07-09T23:06:08.937Z,49.47
2018-07-09T23:08:37.456Z,48.95
2018-07-09T23:11:17.451Z,48.89
2018-07-09T23:14:57.405Z,49.15
2018-07-09T23:17:37.057Z,48.47
2018-07-09T23:22:24.485Z,49.27
2018-07-09T23:24:51.889Z,49.14
2018-07-09T23:27:18.912Z,49.54
2018-07-09T23:29:45.900Z,49.18
2018-07-09T23:32:12.944Z,49.20
2018-07-09T23:34:39.925Z,49.01
2018-07-09T23:37:07.003Z,48.50
2018-07-09T23:39:34.508Z,48.85
2018-07-09T23:42:02.532Z,49.01
2018-07-09T23:44:29.854Z,49.13
2018-07-09T23:46:57.002Z,48.94
2018-07-09T23:49:25.110Z,48.36
2018-07-09T23:51:53.344Z,48.31
2018-07-09T23:54:20.410Z,48.11
2018-07-09T23:56:52.466Z,48.02
2018-07-09T23:59:27.830Z,48.24
